createdAt,value
2018-11-03T00:00:18.031Z,5.53
2018-11-03T00:02:50.762Z,7.47
2018-11-03T00:05:22.713Z,5.77
2018-11-03T00:07:52.869Z,7.07
2018-11-03T00:10:21.666Z,6.33
2018-11-03T00:12:53.651Z,4.00
2018-11-03T00:15:23.075Z,10.00
2018-11-03T00:17:56.142Z,12.63
2018-11-03T00:20:28.816Z,9.13
2018-11-03T00:22:58.493Z,8.33
2018-11-03T00:25:27.662Z,7.17
2018-11-03T00:27:56.994Z,5.83
2018-11-03T00:30:33.088Z,9.37
2018-11-03T00:33:03.500Z,8.40
2018-11-03T00:35:34.461Z,6.67
2018-11-03T00:38:03.593Z,9.40
2018-11-03T00:40:34.681Z,6.03
2018-11-03T00:43:09.411Z,7.67
2018-11-03T00:45:38.369Z,11.30
2018-11-03T00:48:07.481Z,7.93
2018-11-03T00:50:56.844Z,9.70
2018-11-03T00:53:27.847Z,7.73
2018-11-03T00:55:59.727Z,9.33
2018-11-03T00:58:29.659Z,9.93
2018-11-03T01:00:58.564Z,10.83
2018-11-03T01:03:27.512Z,6.77
2018-11-03T01:05:57.090Z,6.23
2018-11-03T01:08:31.744Z,9.70
2018-11-03T01:11:00.516Z,8.60
2018-11-03T01:13:29.882Z,6.57
2018-11-03T01:15:59.071Z,9.63
2018-11-03T01:18:29.203Z,10.00
2018-11-03T01:21:00.508Z,8.33
2018-11-03T01:23:29.824Z,7.10
2018-11-03T01:25:59.719Z,9.80
2018-11-03T01:28:29.434Z,6.53
2018-11-03T01:31:02.212Z,8.03
2018-11-03T01:33:31.322Z,7.07
2018-11-03T01:36:12.440Z,6.73
2018-11-03T01:38:43.390Z,11.43
2018-11-03T01:41:13.569Z,5.83
2018-11-03T01:43:43.610Z,7.87
2018-11-03T01:46:17.050Z,8.33
2018-11-03T01:48:46.810Z,9.67
2018-11-03T01:51:24.101Z,7.53
2018-11-03T01:53:52.960Z,10.93
2018-11-03T01:56:24.200Z,10.43
2018-11-03T01:58:53.156Z,8.10
2018-11-03T02:01:22.165Z,7.50
2018-11-03T02:03:51.086Z,8.40
2018-11-03T02:06:25.634Z,9.60
2018-11-03T02:09:00.564Z,6.80
2018-11-03T02:11:30.593Z,7.47
2018-11-03T02:13:59.668Z,10.23
2018-11-03T02:16:29.640Z,10.20
2018-11-03T02:19:02.610Z,7.00
2018-11-03T02:21:34.398Z,7.50
2018-11-03T02:24:06.954Z,8.37
2018-11-03T02:26:35.895Z,6.80
2018-11-03T02:29:05.256Z,10.10
2018-11-03T02:31:38.725Z,9.53
2018-11-03T02:34:07.481Z,11.07
2018-11-03T02:36:36.616Z,9.63
2018-11-03T02:39:07.882Z,10.77
2018-11-03T02:41:36.970Z,9.73
2018-11-03T02:44:06.909Z,9.03
2018-11-03T02:46:36.781Z,11.17
2018-11-03T02:49:10.229Z,8.80
2018-11-03T02:51:52.562Z,11.63
2018-11-03T02:54:21.393Z,10.17
2018-11-03T02:56:51.355Z,12.07
2018-11-03T02:59:21.398Z,8.37
2018-11-03T03:01:53.937Z,11.43
2018-11-03T03:04:24.802Z,11.83
2018-11-03T03:06:53.711Z,9.70
2018-11-03T03:09:23.689Z,8.90
2018-11-03T03:11:53.923Z,11.13
2018-11-03T03:14:24.161Z,7.57
2018-11-03T03:16:53.245Z,16.87
2018-11-03T03:19:21.981Z,11.37
2018-11-03T03:21:51.955Z,10.13
2018-11-03T03:24:24.975Z,12.47
2018-11-03T03:26:54.673Z,10.37
2018-11-03T03:29:24.919Z,11.13
2018-11-03T03:31:54.114Z,9.20
2018-11-03T03:34:23.929Z,8.10
2018-11-03T03:36:59.220Z,10.70
2018-11-03T03:39:28.496Z,7.30
2018-11-03T03:41:58.400Z,8.83
2018-11-03T03:44:27.294Z,12.23
2018-11-03T03:46:56.676Z,9.13
2018-11-03T03:49:32.736Z,11.97
2018-11-03T03:52:02.830Z,10.13
2018-11-03T03:54:33.073Z,10.00
2018-11-03T03:57:03.307Z,14.97
2018-11-03T03:59:33.320Z,10.80
2018-11-03T04:02:10.344Z,12.17
2018-11-03T04:04:40.285Z,11.37
2018-11-03T04:07:09.290Z,11.00
2018-11-03T04:09:42.125Z,10.00
2018-11-03T04:12:11.072Z,9.07
2018-11-03T04:14:40.292Z,11.10
2018-11-03T04:17:09.135Z,11.93
2018-11-03T04:19:44.845Z,13.87
2018-11-03T04:22:15.885Z,12.37
2018-11-03T04:25:04.722Z,10.47
2018-11-03T04:27:33.418Z,10.00
2018-11-03T04:30:06.566Z,12.83
2018-11-03T04:32:35.447Z,10.17
2018-11-03T04:35:05.420Z,12.70
2018-11-03T04:37:34.790Z,15.00
2018-11-03T04:40:03.930Z,12.37
2018-11-03T04:42:32.737Z,13.43
2018-11-03T04:45:01.574Z,14.10
2018-11-03T04:47:34.528Z,16.33
2018-11-03T04:50:03.993Z,12.80
2018-11-03T04:52:32.793Z,13.47
2018-11-03T04:55:03.821Z,17.07
2018-11-03T04:57:34.696Z,14.43
2018-11-03T05:00:03.950Z,11.67
2018-11-03T05:02:36.596Z,12.40
2018-11-03T05:05:05.980Z,13.17
2018-11-03T05:07:35.200Z,13.57
2018-11-03T05:10:04.014Z,12.60
2018-11-03T05:12:32.788Z,11.87
2018-11-03T05:15:02.857Z,13.33
2018-11-03T05:17:33.788Z,12.07
2018-11-03T05:20:02.679Z,14.20
2018-11-03T05:22:32.622Z,15.93
2018-11-03T05:25:02.390Z,13.57
2018-11-03T05:27:39.533Z,11.07
2018-11-03T05:30:08.749Z,14.73
2018-11-03T05:32:40.520Z,13.07
2018-11-03T05:35:09.215Z,15.13
2018-11-03T05:37:38.404Z,11.17
2018-11-03T05:40:07.689Z,14.23
2018-11-03T05:42:36.856Z,14.50
2018-11-03T05:45:07.798Z,14.20
2018-11-03T05:47:42.483Z,13.70
2018-11-03T05:50:12.305Z,16.53
2018-11-03T05:52:51.891Z,13.70
2018-11-03T05:55:21.684Z,13.40
2018-11-03T05:57:50.607Z,13.90
2018-11-03T06:00:19.799Z,15.33
2018-11-03T06:02:49.710Z,14.53
2018-11-03T06:05:18.725Z,12.53
2018-11-03T06:07:47.823Z,11.97
2018-11-03T06:10:18.662Z,10.33
2018-11-03T06:12:52.853Z,12.87
2018-11-03T06:15:21.728Z,10.83
2018-11-03T06:17:52.549Z,11.60
2018-11-03T06:20:22.589Z,13.53
2018-11-03T06:22:51.380Z,12.27
2018-11-03T06:25:27.273Z,8.97
2018-11-03T06:28:18.288Z,14.20
2018-11-03T06:30:48.713Z,11.73
2018-11-03T06:33:18.705Z,15.50
2018-11-03T06:35:47.628Z,11.87
2018-11-03T06:38:22.892Z,12.23
2018-11-03T06:40:55.474Z,10.20
2018-11-03T06:43:24.822Z,15.10
2018-11-03T06:46:56.868Z,11.97
2018-11-03T06:49:26.012Z,11.30
2018-11-03T06:51:58.465Z,11.73
2018-11-03T06:54:27.387Z,12.87
2018-11-03T06:56:56.327Z,14.40
2018-11-03T06:59:27.400Z,14.63
2018-11-03T07:01:58.555Z,11.10
2018-11-03T07:04:28.056Z,12.43
2018-11-03T07:06:56.815Z,12.30
2018-11-03T07:09:27.296Z,15.17
2018-11-03T07:11:56.636Z,13.47
2018-11-03T07:14:25.628Z,14.43
2018-11-03T07:16:57.992Z,11.83
2018-11-03T07:19:32.901Z,13.33
2018-11-03T07:22:01.597Z,12.57
2018-11-03T07:24:30.211Z,15.03
2018-11-03T07:26:58.864Z,13.70
2018-11-03T07:29:27.801Z,10.77
2018-11-03T07:31:58.718Z,12.73
2018-11-03T07:34:27.591Z,12.87
2018-11-03T07:36:56.556Z,13.73
2018-11-03T07:39:27.469Z,10.90
2018-11-03T07:41:56.324Z,16.90
2018-11-03T07:44:25.715Z,12.70
2018-11-03T07:46:55.535Z,13.40
2018-11-03T07:49:24.896Z,12.20
2018-11-03T07:51:53.678Z,13.77
2018-11-03T07:54:22.461Z,17.43
2018-11-03T07:56:51.487Z,11.00
2018-11-03T07:59:20.957Z,12.67
2018-11-03T08:01:50.892Z,13.43
2018-11-03T08:04:19.646Z,11.20
2018-11-03T08:06:48.236Z,15.23
2018-11-03T08:09:16.976Z,15.20
2018-11-03T08:11:45.881Z,12.60
2018-11-03T08:14:14.505Z,12.37
2018-11-03T08:16:43.275Z,10.73
2018-11-03T08:19:12.521Z,13.17
2018-11-03T08:21:41.499Z,13.27
2018-11-03T08:24:10.347Z,11.43
2018-11-03T08:26:39.533Z,13.43
2018-11-03T08:29:08.110Z,10.67
2018-11-03T08:31:36.963Z,12.10
2018-11-03T08:34:06.038Z,14.70
2018-11-03T08:36:35.015Z,14.77
2018-11-03T08:39:04.975Z,13.07
2018-11-03T08:41:35.847Z,13.93
2018-11-03T08:44:04.612Z,14.57
2018-11-03T08:46:33.681Z,12.07
2018-11-03T08:49:03.179Z,12.63
2018-11-03T08:51:32.119Z,13.10
2018-11-03T08:54:01.512Z,11.73
2018-11-03T08:56:30.503Z,10.83
2018-11-03T08:58:59.695Z,13.67
2018-11-03T09:01:28.970Z,12.23
2018-11-03T09:03:58.660Z,15.10
2018-11-03T09:06:27.442Z,10.37
2018-11-03T09:08:56.312Z,12.17
2018-11-03T09:11:25.255Z,11.77
2018-11-03T09:13:54.281Z,13.67
2018-11-03T09:16:23.389Z,13.87
2018-11-03T09:18:52.236Z,12.17
2018-11-03T09:21:21.173Z,12.00
2018-11-03T09:23:49.859Z,12.40
2018-11-03T09:26:19.055Z,13.87
2018-11-03T09:28:48.850Z,15.27
2018-11-03T09:31:17.716Z,15.47
2018-11-03T09:33:47.064Z,12.60
2018-11-03T09:36:16.094Z,12.30
2018-11-03T09:38:45.224Z,14.37
2018-11-03T09:41:14.410Z,9.87
2018-11-03T09:43:43.588Z,13.97
2018-11-03T09:46:13.634Z,12.90
2018-11-03T09:48:42.777Z,12.57
2018-11-03T09:51:11.932Z,11.17
2018-11-03T09:53:41.683Z,10.60
2018-11-03T09:56:10.745Z,10.43
2018-11-03T09:58:42.157Z,12.13
2018-11-03T10:01:24.757Z,11.23
2018-11-03T10:03:54.298Z,9.53
2018-11-03T10:06:23.511Z,10.17
2018-11-03T10:11:19.711Z,10.70
2018-11-03T10:13:48.393Z,12.33
2018-11-03T10:16:17.173Z,13.70
2018-11-03T10:18:45.762Z,15.33
2018-11-03T10:21:15.637Z,13.30
2018-11-03T10:23:44.382Z,14.77
2018-11-03T10:26:13.423Z,15.53
2018-11-03T10:28:42.151Z,13.10
2018-11-03T10:31:10.966Z,11.90
2018-11-03T10:33:39.495Z,13.37
2018-11-03T10:36:08.246Z,11.97
2018-11-03T10:38:36.857Z,13.47
2018-11-03T10:41:05.852Z,13.03
2018-11-03T10:43:35.085Z,10.30
2018-11-03T10:46:04.032Z,10.93
2018-11-03T10:48:32.827Z,7.60
2018-11-03T10:51:01.573Z,8.00
2018-11-03T10:53:30.134Z,6.87
2018-11-03T10:55:59.115Z,7.90
2018-11-03T10:58:28.078Z,7.40
2018-11-03T11:02:02.311Z,9.37
2018-11-03T11:04:36.434Z,7.87
2018-11-03T11:07:10.859Z,7.87
2018-11-03T11:09:44.923Z,10.03
2018-11-03T11:12:45.940Z,8.67
2018-11-03T11:15:14.709Z,7.77
2018-11-03T11:17:43.350Z,6.90
2018-11-03T11:20:12.140Z,7.00
2018-11-03T11:22:41.041Z,9.73
2018-11-03T11:25:11.230Z,5.57
2018-11-03T11:27:39.730Z,7.50
2018-11-03T11:30:11.143Z,6.00
2018-11-03T11:32:40.016Z,10.63
2018-11-03T11:35:09.308Z,7.10
2018-11-03T11:37:38.991Z,5.17
2018-11-03T11:40:08.051Z,6.00
2018-11-03T11:45:05.203Z,5.17
2018-11-03T11:47:34.122Z,8.63
2018-11-03T11:50:03.214Z,4.30
2018-11-03T11:52:31.984Z,8.20
2018-11-03T11:55:01.368Z,6.70
2018-11-03T11:57:30.255Z,5.53
2018-11-03T11:59:59.351Z,5.17
2018-11-03T12:02:28.148Z,6.43
2018-11-03T12:04:57.031Z,6.33
2018-11-03T12:07:26.728Z,9.30
2018-11-03T12:09:55.705Z,6.80
2018-11-03T12:12:24.644Z,6.80
2018-11-03T12:15:56.068Z,9.70
2018-11-03T12:18:25.526Z,5.93
2018-11-03T12:20:54.432Z,6.70
2018-11-03T12:23:23.193Z,12.47
2018-11-03T12:25:52.042Z,7.53
2018-11-03T12:28:20.775Z,6.17
2018-11-03T12:30:49.647Z,5.33
2018-11-03T12:33:18.343Z,6.97
2018-11-03T12:35:47.185Z,8.10
2018-11-03T12:38:15.958Z,5.87
2018-11-03T12:40:44.826Z,5.93
2018-11-03T12:43:14.141Z,7.50
2018-11-03T12:45:43.018Z,5.33
2018-11-03T12:48:11.589Z,5.30
2018-11-03T12:50:40.355Z,7.20
2018-11-03T12:53:09.172Z,7.83
2018-11-03T12:55:37.916Z,5.87
2018-11-03T12:58:06.571Z,10.23
2018-11-03T13:00:35.361Z,6.03
2018-11-03T13:03:04.031Z,8.17
2018-11-03T13:05:32.821Z,8.30
2018-11-03T13:08:01.505Z,5.27
2018-11-03T13:10:30.364Z,6.03
2018-11-03T13:12:59.283Z,6.83
2018-11-03T13:15:28.025Z,6.87
2018-11-03T13:17:56.959Z,8.20
2018-11-03T13:20:26.115Z,6.33
2018-11-03T13:22:55.514Z,7.17
2018-11-03T13:25:25.360Z,6.83
2018-11-03T13:27:55.244Z,7.40
2018-11-03T13:30:24.457Z,9.77
2018-11-03T13:32:53.544Z,9.60
2018-11-03T13:35:23.095Z,11.97
2018-11-03T13:37:52.498Z,7.10
2018-11-03T13:40:23.062Z,10.07
2018-11-03T13:42:52.236Z,9.30
2018-11-03T13:45:21.296Z,10.23
2018-11-03T13:47:50.348Z,12.43
2018-11-03T13:50:19.453Z,9.03
2018-11-03T13:52:49.304Z,13.10
2018-11-03T13:55:18.493Z,10.97
2018-11-03T13:57:47.439Z,8.87
2018-11-03T14:00:17.709Z,9.97
2018-11-03T14:02:47.210Z,10.93
2018-11-03T14:05:15.990Z,11.40
2018-11-03T14:07:44.810Z,13.40
2018-11-03T14:10:14.748Z,11.00
2018-11-03T14:18:46.209Z,9.07
2018-11-03T14:27:05.839Z,9.50
2018-11-03T14:29:37.860Z,9.67
2018-11-03T14:32:07.678Z,9.37
2018-11-03T14:34:36.617Z,12.20
2018-11-03T14:37:05.900Z,9.33
2018-11-03T14:39:34.634Z,13.67
2018-11-03T14:42:05.703Z,10.50
2018-11-03T14:44:34.775Z,7.40
2018-11-03T14:47:03.534Z,9.97
2018-11-03T14:49:35.708Z,10.40
2018-11-03T14:52:04.778Z,11.43
2018-11-03T14:54:33.372Z,10.20
2018-11-03T14:57:02.363Z,7.70
2018-11-03T14:59:31.339Z,9.17
2018-11-03T15:02:00.260Z,10.00
2018-11-03T15:04:30.031Z,10.57
2018-11-03T15:07:00.939Z,11.43
2018-11-03T15:09:29.779Z,16.43
2018-11-03T15:12:04.951Z,10.67
2018-11-03T15:14:33.832Z,11.87
2018-11-03T16:23:35.051Z,14.87
2018-11-03T16:26:03.830Z,12.70
2018-11-03T16:28:37.673Z,13.60
2018-11-03T16:31:22.362Z,14.13
2018-11-03T16:33:52.363Z,11.67
2018-11-03T16:36:27.150Z,11.97
2018-11-03T16:41:48.321Z,13.03
2018-11-03T17:36:05.742Z,15.40
2018-11-03T17:38:34.514Z,15.87
2018-11-03T17:46:44.480Z,12.93
2018-11-03T17:49:13.021Z,17.37
2018-11-03T17:57:23.652Z,15.93
2018-11-03T17:59:52.541Z,17.27
2018-11-03T18:05:13.618Z,16.17
2018-11-03T18:07:42.277Z,13.40
2018-11-03T18:10:12.090Z,13.63
2018-11-03T18:12:41.514Z,14.90
2018-11-03T18:15:11.815Z,18.63
2018-11-03T18:17:41.149Z,15.43
2018-11-03T18:20:22.304Z,15.07
2018-11-03T18:22:51.353Z,18.20
2018-11-03T18:25:20.148Z,15.00
2018-11-03T18:27:49.123Z,19.30
2018-11-03T18:30:21.606Z,14.87
2018-11-03T18:32:50.916Z,14.73
2018-11-03T18:35:19.678Z,14.53
2018-11-03T18:37:48.306Z,17.37
2018-11-03T18:40:16.968Z,13.97
2018-11-03T18:42:45.786Z,19.43
2018-11-03T18:45:14.529Z,13.77
2018-11-03T18:47:43.451Z,14.50
2018-11-03T18:50:13.799Z,15.33
2018-11-03T18:52:46.934Z,13.03
2018-11-03T19:09:33.818Z,14.57
2018-11-03T19:16:37.895Z,14.80
2018-11-03T19:19:06.650Z,20.47
2018-11-03T19:21:35.353Z,17.43
2018-11-03T19:24:04.247Z,16.70
2018-11-03T19:26:33.066Z,19.47
2018-11-03T19:29:02.015Z,15.90
2018-11-03T19:31:30.559Z,15.33
2018-11-03T19:33:59.389Z,18.97
2018-11-03T19:36:28.232Z,17.70
2018-11-03T19:38:57.268Z,21.53
2018-11-03T19:41:27.514Z,12.30
2018-11-03T19:43:57.469Z,16.43
2018-11-03T19:46:26.967Z,18.47
2018-11-03T19:48:55.793Z,15.43
2018-11-03T19:51:24.729Z,14.70
2018-11-03T19:53:53.495Z,14.00
2018-11-03T19:56:22.386Z,22.07
2018-11-03T19:58:51.573Z,16.70
2018-11-03T20:01:20.201Z,16.33
2018-11-03T20:03:48.865Z,16.10
2018-11-03T20:06:17.733Z,14.53
2018-11-03T20:08:46.499Z,16.43
2018-11-03T20:11:15.071Z,21.57
2018-11-03T20:13:43.770Z,18.60
2018-11-03T20:16:13.748Z,17.27
2018-11-03T20:18:43.134Z,16.13
2018-11-03T20:21:11.905Z,18.53
2018-11-03T20:23:40.602Z,14.80
2018-11-03T20:26:10.055Z,15.77
2018-11-03T20:40:05.404Z,18.07
2018-11-03T20:42:34.101Z,19.53
2018-11-03T20:45:03.333Z,22.07
2018-11-03T20:47:32.127Z,18.40
2018-11-03T20:50:00.876Z,17.40
2018-11-03T20:52:29.703Z,20.80
2018-11-03T20:54:58.370Z,19.03
2018-11-03T20:57:27.144Z,20.90
2018-11-03T20:59:55.945Z,23.20
2018-11-03T21:02:25.098Z,20.67
2018-11-03T21:04:53.909Z,17.67
2018-11-03T21:07:22.501Z,26.17
2018-11-03T21:09:51.285Z,20.33
2018-11-03T21:12:21.141Z,22.07
2018-11-03T21:14:50.256Z,18.53
2018-11-03T21:17:18.854Z,17.37
2018-11-03T21:19:47.579Z,21.37
2018-11-03T21:22:16.121Z,20.50
2018-11-03T21:24:44.894Z,20.60
2018-11-03T21:27:13.496Z,23.10
2018-11-03T21:29:42.050Z,21.27
2018-11-03T21:32:10.936Z,19.97
2018-11-03T21:34:39.413Z,18.80
2018-11-03T21:37:08.392Z,19.27
2018-11-03T21:39:37.095Z,19.67
2018-11-03T21:42:06.261Z,22.30
2018-11-03T21:44:34.992Z,20.93
2018-11-03T21:47:03.677Z,18.43
2018-11-03T21:49:32.689Z,26.93
2018-11-03T21:52:01.545Z,19.17
2018-11-03T21:54:30.207Z,18.60
2018-11-03T21:56:58.734Z,20.07
2018-11-03T21:59:27.317Z,24.53
2018-11-03T22:01:55.840Z,22.77
2018-11-03T22:04:24.451Z,20.50
2018-11-03T22:06:54.861Z,23.13
2018-11-03T22:09:23.398Z,24.20
2018-11-03T22:11:52.081Z,22.40
2018-11-03T22:14:20.821Z,23.30
2018-11-03T22:16:49.497Z,22.40
2018-11-03T22:19:23.531Z,24.07
2018-11-03T22:21:52.149Z,21.07
2018-11-03T22:24:20.897Z,22.83
2018-11-03T22:26:49.438Z,24.47
2018-11-03T22:29:18.362Z,23.80
2018-11-03T22:31:46.855Z,20.90
2018-11-03T22:34:15.379Z,21.70
2018-11-03T22:36:43.886Z,23.57
2018-11-03T22:39:12.700Z,22.90
2018-11-03T22:41:41.604Z,20.07
2018-11-03T22:44:10.518Z,28.47
2018-11-03T22:46:39.361Z,23.83
2018-11-03T22:49:08.035Z,23.43
2018-11-03T22:51:37.284Z,23.77
2018-11-03T22:54:06.191Z,23.80
2018-11-03T22:56:34.872Z,22.03
2018-11-03T22:59:03.894Z,22.57
2018-11-03T23:01:32.501Z,22.53
2018-11-03T23:04:01.870Z,21.10
2018-11-03T23:06:30.665Z,24.30
2018-11-03T23:08:59.480Z,23.53
2018-11-03T23:11:28.085Z,20.67
2018-11-03T23:13:56.704Z,22.87
2018-11-03T23:16:25.379Z,20.83
2018-11-03T23:18:54.092Z,24.37
2018-11-03T23:21:22.707Z,25.07
2018-11-03T23:23:51.438Z,24.87
2018-11-03T23:26:20.568Z,23.03
2018-11-03T23:28:49.476Z,28.60
2018-11-03T23:31:18.092Z,22.30
2018-11-03T23:33:47.144Z,20.10
2018-11-03T23:36:15.808Z,19.67
2018-11-03T23:38:44.651Z,20.50
2018-11-03T23:41:13.527Z,22.00
2018-11-03T23:43:42.178Z,19.90
2018-11-03T23:46:10.927Z,24.80
2018-11-03T23:48:39.463Z,25.37
2018-11-03T23:51:07.957Z,25.43
2018-11-03T23:53:36.404Z,23.60
2018-11-03T23:56:05.189Z,21.87
2018-11-03T23:58:33.763Z,22.97
